Time,TemperatureF,DewpointF,PressureIn,WindDirection,WindDirectionDegrees,WindSpeedMPH,WindSpeedGustMPH,Humidity,HourlyPrecipIn,Conditions,Clouds,dailyrainin,SoftwareType,DateUTC
2013-02-03 00:03:00,58.1,49.9,29.83,NNW,338,0.7,1.1,74,0.00,,,0.00,WUHU216HW,2013-02-03 08:03:00,
2013-02-03 00:08:00,58.0,49.7,29.83,North,0,0.0,1.1,74,0.00,,,0.00,WUHU216HW,2013-02-03 08:08:00,
2013-02-03 00:13:00,57.8,49.9,29.83,NNW,338,0.4,1.1,75,0.00,,,0.00,WUHU216HW,2013-02-03 08:13:00,
2013-02-03 00:18:00,57.6,49.7,29.83,NNW,338,0.0,1.1,75,0.00,,,0.00,WUHU216HW,2013-02-03 08:18:00,
2013-02-03 00:23:00,57.2,49.3,29.83,NNE,23,0.0,1.8,75,0.00,,,0.00,WUHU216HW,2013-02-03 08:23:00,
2013-02-03 00:28:00,57.2,49.7,29.82,ENE,68,0.9,1.8,76,0.00,,,0.00,WUHU216HW,2013-02-03 08:28:00,
2013-02-03 00:33:00,56.9,49.3,29.82,NNE,23,0.0,1.3,76,0.00,,,0.00,WUHU216HW,2013-02-03 08:33:00,
2013-02-03 00:38:00,56.9,49.3,29.82,WSW,248,0.2,1.3,76,0.00,,,0.00,WUHU216HW,2013-02-03 08:38:00,
2013-02-03 00:43:00,56.9,49.0,29.83,NW,315,0.4,1.6,75,0.00,,,0.00,WUHU216HW,2013-02-03 08:43:00,
2013-02-03 00:48:00,56.7,48.8,29.83,South,180,0.4,1.6,75,0.00,,,0.00,WUHU216HW,2013-02-03 08:48:00,
2013-02-03 00:53:00,56.5,49.0,29.83,SW,225,1.6,1.8,76,0.00,,,0.00,WUHU216HW,2013-02-03 08:53:00,
2013-02-03 00:58:00,56.3,49.1,29.83,ESE,113,1.1,1.8,77,0.00,,,0.00,WUHU216HW,2013-02-03 08:58:00,
2013-02-03 01:03:00,56.0,49.5,29.83,NNW,338,0.2,1.6,79,0.00,,,0.00,WUHU216HW,2013-02-03 09:03:00,
2013-02-03 01:08:00,55.8,49.3,29.83,WSW,248,0.4,1.3,79,0.00,,,0.00,WUHU216HW,2013-02-03 09:08:00,
2013-02-03 01:13:00,55.4,49.7,29.83,ENE,68,1.1,1.3,81,0.00,,,0.00,WUHU216HW,2013-02-03 09:13:00,
2013-02-03 01:18:00,55.3,49.1,29.83,WSW,248,0.4,2.5,80,0.00,,,0.00,WUHU216HW,2013-02-03 09:18:00,
2013-02-03 01:23:00,55.1,49.7,29.82,WSW,248,0.0,2.5,82,0.00,,,0.00,WUHU216HW,2013-02-03 09:23:00,
2013-02-03 01:28:00,55.1,49.3,29.82,ESE,113,0.0,1.8,81,0.00,,,0.00,WUHU216HW,2013-02-03 09:28:00,
2013-02-03 01:33:00,54.7,49.0,29.82,East,90,0.0,1.1,81,0.00,,,0.00,WUHU216HW,2013-02-03 09:33:00,
2013-02-03 01:38:00,54.5,49.8,29.81,ENE,68,1.3,2.2,84,0.00,,,0.00,WUHU216HW,2013-02-03 09:38:00,
2013-02-03 01:43:00,54.4,49.6,29.81,ENE,68,0.4,2.2,84,0.00,,,0.00,WUHU216HW,2013-02-03 09:43:00,
2013-02-03 01:48:00,54.4,49.0,29.81,NE,45,0.4,2.0,82,0.00,,,0.00,WUHU216HW,2013-02-03 09:48:00,
2013-02-03 01:53:00,54.2,48.8,29.81,NNE,23,1.6,2.5,82,0.00,,,0.00,WUHU216HW,2013-02-03 09:53:00,
2013-02-03 01:58:00,54.2,48.8,29.81,NNE,23,1.6,2.5,82,0.00,,,0.00,WUHU216HW,2013-02-03 09:58:00,
2013-02-03 02:03:00,54.4,47.6,29.81,East,90,1.3,1.6,78,0.00,,,0.00,WUHU216HW,2013-02-03 10:03:00,
2013-02-03 02:08:00,54.7,47.6,29.81,East,90,1.1,1.6,77,0.00,,,0.00,WUHU216HW,2013-02-03 10:08:00,
2013-02-03 02:13:00,55.1,47.6,29.81,North,0,0.4,1.6,76,0.00,,,0.00,WUHU216HW,2013-02-03 10:13:00,
2013-02-03 02:18:00,55.6,47.1,29.81,ENE,68,0.9,1.3,73,0.00,,,0.00,WUHU216HW,2013-02-03 10:18:00,
2013-02-03 02:23:00,56.2,47.6,29.81,West,270,1.1,1.6,73,0.00,,,0.00,WUHU216HW,2013-02-03 10:23:00,
2013-02-03 02:28:00,55.8,48.0,29.81,West,270,0.2,2.5,75,0.00,,,0.00,WUHU216HW,2013-02-03 10:28:00,
2013-02-03 02:33:00,55.6,47.8,29.81,SW,225,1.3,2.5,75,0.00,,,0.00,WUHU216HW,2013-02-03 10:33:00,
2013-02-03 02:38:00,55.3,47.8,29.81,NNW,338,0.4,1.8,76,0.00,,,0.00,WUHU216HW,2013-02-03 10:38:00,
2013-02-03 02:43:00,55.1,47.6,29.82,NNW,338,0.0,1.8,76,0.00,,,0.00,WUHU216HW,2013-02-03 10:43:00,
2013-02-03 02:48:00,55.1,48.0,29.82,WSW,248,0.4,1.3,77,0.00,,,0.00,WUHU216HW,2013-02-03 10:48:00,
2013-02-03 02:53:00,54.5,48.2,29.81,NNW,338,0.0,1.3,79,0.00,,,0.00,WUHU216HW,2013-02-03 10:53:00,
2013-02-03 02:58:00,54.2,48.2,29.81,ENE,68,0.2,1.8,80,0.00,,,0.00,WUHU216HW,2013-02-03 10:58:00,
2013-02-03 03:03:00,54.0,47.7,29.81,ENE,68,0.0,1.8,79,0.00,,,0.00,WUHU216HW,2013-02-03 11:03:00,
2013-02-03 03:08:00,53.5,48.8,29.81,ENE,68,1.1,1.8,84,0.00,,,0.00,WUHU216HW,2013-02-03 11:08:00,
2013-02-03 03:13:00,53.3,48.0,29.81,ENE,68,0.0,1.8,82,0.00,,,0.00,WUHU216HW,2013-02-03 11:13:00,
2013-02-03 03:18:00,53.1,48.4,29.81,ENE,68,1.1,1.3,84,0.00,,,0.00,WUHU216HW,2013-02-03 11:18:00,
2013-02-03 03:23:00,52.9,48.3,29.81,NE,45,0.9,1.8,84,0.00,,,0.00,WUHU216HW,2013-02-03 11:23:00,
2013-02-03 03:28:00,52.9,48.3,29.80,ENE,68,1.1,2.2,84,0.00,,,0.00,WUHU216HW,2013-02-03 11:28:00,
2013-02-03 03:33:00,52.7,47.4,29.80,NE,45,1.1,2.2,82,0.00,,,0.00,WUHU216HW,2013-02-03 11:33:00,
2013-02-03 03:38:00,52.6,47.3,29.79,NNE,23,0.4,1.8,82,0.00,,,0.00,WUHU216HW,2013-02-03 11:38:00,
2013-02-03 03:43:00,52.6,46.9,29.80,NNW,338,0.4,1.8,81,0.00,,,0.00,WUHU216HW,2013-02-03 11:43:00,
2013-02-03 03:48:00,52.2,46.5,29.80,NNW,338,0.0,0.9,81,0.00,,,0.00,WUHU216HW,2013-02-03 11:48:00,
2013-02-03 03:53:00,52.2,46.3,29.80,NNW,338,0.2,0.9,80,0.00,,,0.00,WUHU216HW,2013-02-03 11:53:00,
2013-02-03 03:58:00,52.0,46.1,29.79,SE,135,0.4,1.1,80,0.00,,,0.00,WUHU216HW,2013-02-03 11:58:00,
2013-02-03 04:03:00,51.7,46.0,29.80,North,0,1.6,1.6,81,0.00,,,0.00,WUHU216HW,2013-02-03 12:03:00,
2013-02-03 04:08:00,51.5,46.2,29.79,North,0,0.7,1.6,82,0.00,,,0.00,WUHU216HW,2013-02-03 12:08:00,
2013-02-03 04:13:00,51.3,46.0,29.80,ENE,68,0.0,1.6,82,0.00,,,0.00,WUHU216HW,2013-02-03 12:13:00,
2013-02-03 04:18:00,51.1,45.5,29.80,NNE,23,1.1,1.1,81,0.00,,,0.00,WUHU216HW,2013-02-03 12:18:00,
2013-02-03 04:23:00,50.9,45.3,29.79,NNE,23,0.9,1.6,81,0.00,,,0.00,WUHU216HW,2013-02-03 12:23:00,
2013-02-03 04:28:00,50.8,45.5,29.79,ENE,68,0.4,1.6,82,0.00,,,0.00,WUHU216HW,2013-02-03 12:28:00,
2013-02-03 04:33:00,50.8,45.1,29.79,ENE,68,0.0,1.1,81,0.00,,,0.00,WUHU216HW,2013-02-03 12:33:00,
2013-02-03 04:38:00,50.6,45.3,29.79,NE,45,0.9,0.9,82,0.00,,,0.00,WUHU216HW,2013-02-03 12:38:00,
2013-02-03 04:43:00,50.4,45.1,29.79,NE,45,0.4,0.9,82,0.00,,,0.00,WUHU216HW,2013-02-03 12:43:00,
2013-02-03 04:48:00,50.4,45.1,29.78,ENE,68,1.1,1.6,82,0.00,,,0.00,WUHU216HW,2013-02-03 12:48:00,
2013-02-03 04:53:00,50.4,44.7,29.79,NNE,23,1.1,1.8,81,0.00,,,0.00,WUHU216HW,2013-02-03 12:53:00,
2013-02-03 04:58:00,50.2,44.6,29.78,NNE,23,0.7,1.8,81,0.00,,,0.00,WUHU216HW,2013-02-03 12:58:00,
2013-02-03 05:03:00,50.4,44.7,29.78,North,0,0.4,1.3,81,0.00,,,0.00,WUHU216HW,2013-02-03 13:03:00,
2013-02-03 05:08:00,50.4,44.7,29.78,North,0,1.1,1.1,81,0.00,,,0.00,WUHU216HW,2013-02-03 13:08:00,
2013-02-03 05:13:00,50.2,44.6,29.78,NE,45,1.6,2.0,81,0.00,,,0.00,WUHU216HW,2013-02-03 13:13:00,
2013-02-03 05:18:00,50.2,44.6,29.78,NNE,23,1.1,2.0,81,0.00,,,0.00,WUHU216HW,2013-02-03 13:18:00,
2013-02-03 05:23:00,50.2,44.6,29.78,ESE,113,1.1,1.8,81,0.00,,,0.00,WUHU216HW,2013-02-03 13:23:00,
2013-02-03 05:28:00,50.2,44.6,29.78,WSW,248,0.4,1.3,81,0.00,,,0.00,WUHU216HW,2013-02-03 13:28:00,
2013-02-03 05:33:00,50.0,44.4,29.78,NNE,23,0.4,1.1,81,0.00,,,0.00,WUHU216HW,2013-02-03 13:33:00,
2013-02-03 05:38:00,49.9,44.6,29.78,NE,45,1.1,1.6,82,0.00,,,0.00,WUHU216HW,2013-02-03 13:38:00,
2013-02-03 05:43:00,49.9,44.6,29.78,NNE,23,1.1,1.6,82,0.00,,,0.00,WUHU216HW,2013-02-03 13:43:00,
2013-02-03 05:48:00,49.7,44.4,29.78,East,90,0.9,1.6,82,0.00,,,0.00,WUHU216HW,2013-02-03 13:48:00,
2013-02-03 05:53:00,49.7,44.0,29.78,East,90,0.0,1.6,81,0.00,,,0.00,WUHU216HW,2013-02-03 13:53:00,
2013-02-03 05:58:00,49.5,43.8,29.79,NNE,23,0.7,1.1,81,0.00,,,0.00,WUHU216HW,2013-02-03 13:58:00,
2013-02-03 06:03:00,49.5,44.2,29.78,NE,45,0.9,1.1,82,0.00,,,0.00,WUHU216HW,2013-02-03 14:03:00,
2013-02-03 06:08:00,49.3,43.7,29.79,NNE,23,1.1,1.6,81,0.00,,,0.00,WUHU216HW,2013-02-03 14:08:00,
2013-02-03 06:13:00,49.3,43.7,29.79,NNE,23,1.1,1.6,81,0.00,,,0.00,WUHU216HW,2013-02-03 14:13:00,
2013-02-03 06:18:00,49.3,44.0,29.79,NE,45,0.7,1.6,82,0.00,,,0.00,WUHU216HW,2013-02-03 14:18:00,
2013-02-03 06:23:00,49.3,44.0,29.79,NE,45,0.9,1.8,82,0.00,,,0.00,WUHU216HW,2013-02-03 14:23:00,
2013-02-03 06:28:00,49.3,44.0,29.79,NNE,23,1.8,2.0,82,0.00,,,0.00,WUHU216HW,2013-02-03 14:28:00,
2013-02-03 06:33:00,49.3,44.0,29.79,North,0,0.4,2.0,82,0.00,,,0.00,WUHU216HW,2013-02-03 14:33:00,
2013-02-03 06:38:00,49.3,44.0,29.79,ENE,68,1.3,1.8,82,0.00,,,0.00,WUHU216HW,2013-02-03 14:38:00,
2013-02-03 06:43:00,49.7,44.0,29.79,NE,45,1.6,2.2,81,0.00,,,0.00,WUHU216HW,2013-02-03 14:43:00,
2013-02-03 06:48:00,49.9,43.9,29.79,NE,45,0.7,2.2,80,0.00,,,0.00,WUHU216HW,2013-02-03 14:48:00,
2013-02-03 06:53:00,49.7,43.7,29.80,North,0,1.1,1.6,80,0.00,,,0.00,WUHU216HW,2013-02-03 14:53:00,
2013-02-03 06:58:00,49.7,43.7,29.79,North,0,1.3,1.8,80,0.00,,,0.00,WUHU216HW,2013-02-03 14:58:00,
2013-02-03 07:03:00,49.7,43.7,29.80,NE,45,0.7,1.8,80,0.00,,,0.00,WUHU216HW,2013-02-03 15:03:00,
2013-02-03 07:08:00,49.7,43.7,29.79,NNE,23,1.1,1.6,80,0.00,,,0.00,WUHU216HW,2013-02-03 15:08:00,
2013-02-03 07:13:00,49.9,43.9,29.80,SW,225,1.1,1.1,80,0.00,,,0.00,WUHU216HW,2013-02-03 15:13:00,
2013-02-03 07:18:00,50.0,44.1,29.79,ENE,68,0.4,1.3,80,0.00,,,0.00,WUHU216HW,2013-02-03 15:18:00,
2013-02-03 07:23:00,49.9,43.9,29.80,ENE,68,0.0,1.3,80,0.00,,,0.00,WUHU216HW,2013-02-03 15:23:00,
2013-02-03 07:28:00,49.9,43.9,29.80,East,90,0.0,0.4,80,0.00,,,0.00,WUHU216HW,2013-02-03 15:28:00,
2013-02-03 07:33:00,50.2,44.3,29.80,NNE,23,0.0,1.1,80,0.00,,,0.00,WUHU216HW,2013-02-03 15:33:00,
2013-02-03 07:38:00,50.4,44.5,29.79,NNE,23,0.2,1.1,80,0.00,,,0.00,WUHU216HW,2013-02-03 15:38:00,
2013-02-03 07:43:00,50.9,45.0,29.79,NE,45,0.0,1.6,80,0.00,,,0.00,WUHU216HW,2013-02-03 15:43:00,
2013-02-03 07:48:00,51.5,45.5,29.79,East,90,0.0,1.6,80,0.00,,,0.00,WUHU216HW,2013-02-03 15:48:00,
2013-02-03 07:53:00,52.0,45.7,29.79,East,90,0.7,1.1,79,0.00,,,0.00,WUHU216HW,2013-02-03 15:53:00,
2013-02-03 07:58:00,52.7,46.4,29.79,NW,315,0.0,1.1,79,0.00,,,0.00,WUHU216HW,2013-02-03 15:58:00,
2013-02-03 08:03:00,53.1,46.4,29.79,NE,45,0.0,2.0,78,0.00,,,0.00,WUHU216HW,2013-02-03 16:03:00,
2013-02-03 08:08:00,54.0,47.0,29.79,ENE,68,0.7,2.0,77,0.00,,,0.00,WUHU216HW,2013-02-03 16:08:00,
2013-02-03 08:13:00,54.7,47.3,29.80,East,90,1.1,1.1,76,0.00,,,0.00,WUHU216HW,2013-02-03 16:13:00,
2013-02-03 08:18:00,55.4,48.0,29.79,North,0,0.0,1.1,76,0.00,,,0.00,WUHU216HW,2013-02-03 16:18:00,
2013-02-03 08:23:00,56.2,48.3,29.80,SW,225,0.9,2.5,75,0.00,,,0.00,WUHU216HW,2013-02-03 16:23:00,
2013-02-03 08:28:00,56.5,48.2,29.80,SSW,203,1.6,2.5,74,0.00,,,0.00,WUHU216HW,2013-02-03 16:28:00,
2013-02-03 08:33:00,57.2,49.3,29.80,SW,225,0.4,2.5,75,0.00,,,0.00,WUHU216HW,2013-02-03 16:33:00,
2013-02-03 08:38:00,57.8,49.5,29.80,SE,135,1.1,2.5,74,0.00,,,0.00,WUHU216HW,2013-02-03 16:38:00,
2013-02-03 08:43:00,58.3,49.7,29.80,SW,225,0.7,2.2,73,0.00,,,0.00,WUHU216HW,2013-02-03 16:43:00,
2013-02-03 08:48:00,59.0,49.7,29.80,SW,225,1.1,2.2,71,0.00,,,0.00,WUHU216HW,2013-02-03 16:48:00,
2013-02-03 08:53:00,59.6,49.9,29.80,SSW,203,2.5,2.7,70,0.00,,,0.00,WUHU216HW,2013-02-03 16:53:00,
2013-02-03 08:58:00,60.1,51.1,29.81,SW,225,3.8,5.4,72,0.00,,,0.00,WUHU216HW,2013-02-03 16:58:00,
2013-02-03 09:03:00,60.1,50.8,29.81,SW,225,1.8,5.4,71,0.00,,,0.00,WUHU216HW,2013-02-03 17:03:00,
2013-02-03 09:08:00,60.1,50.0,29.81,SW,225,1.1,3.8,69,0.00,,,0.00,WUHU216HW,2013-02-03 17:08:00,
2013-02-03 09:13:00,60.1,50.0,29.81,SW,225,0.9,3.4,69,0.00,,,0.00,WUHU216HW,2013-02-03 17:13:00,
2013-02-03 09:18:00,60.3,49.0,29.81,NNW,338,1.1,3.4,66,0.00,,,0.00,WUHU216HW,2013-02-03 17:18:00,
2013-02-03 09:23:00,60.5,49.2,29.81,NNW,338,0.9,2.5,66,0.00,,,0.00,WUHU216HW,2013-02-03 17:23:00,
2013-02-03 09:28:00,60.5,49.2,29.81,NNW,338,0.4,2.5,66,0.00,,,0.00,WUHU216HW,2013-02-03 17:28:00,
2013-02-03 09:33:00,60.8,51.5,29.81,SSW,203,0.7,3.1,71,0.00,,,0.00,WUHU216HW,2013-02-03 17:33:00,
2013-02-03 09:38:00,61.2,52.6,29.81,WNW,293,0.9,3.1,73,0.00,,,0.00,WUHU216HW,2013-02-03 17:38:00,
2013-02-03 09:43:00,61.6,53.2,29.81,West,270,0.2,2.9,74,0.00,,,0.00,WUHU216HW,2013-02-03 17:43:00,
2013-02-03 09:48:00,61.6,53.6,29.81,West,270,1.1,1.6,75,0.00,,,0.00,WUHU216HW,2013-02-03 17:48:00,
2013-02-03 09:53:00,61.4,53.4,29.81,West,270,1.1,1.8,75,0.00,,,0.00,WUHU216HW,2013-02-03 17:53:00,
2013-02-03 09:58:00,61.6,53.6,29.81,WSW,248,2.2,2.7,75,0.00,,,0.00,WUHU216HW,2013-02-03 17:58:00,
2013-02-03 10:03:00,61.9,53.9,29.81,WNW,293,0.9,3.1,75,0.00,,,0.00,WUHU216HW,2013-02-03 18:03:00,
2013-02-03 10:08:00,61.6,53.6,29.81,WSW,248,0.4,3.4,75,0.00,,,0.00,WUHU216HW,2013-02-03 18:08:00,
2013-02-03 10:13:00,61.6,53.2,29.81,West,270,2.0,3.4,74,0.00,,,0.00,WUHU216HW,2013-02-03 18:13:00,
2013-02-03 10:18:00,61.6,53.9,29.81,WNW,293,1.6,2.9,76,0.00,,,0.00,WUHU216HW,2013-02-03 18:18:00,
2013-02-03 10:23:00,61.2,53.3,29.81,SW,225,3.4,3.4,75,0.00,,,0.00,WUHU216HW,2013-02-03 18:23:00,
2013-02-03 10:28:00,61.6,53.9,29.81,WSW,248,2.5,3.4,76,0.00,,,0.00,WUHU216HW,2013-02-03 18:28:00,
2013-02-03 10:33:00,61.6,54.3,29.81,SSW,203,2.0,4.0,77,0.00,,,0.00,WUHU216HW,2013-02-03 18:33:00,
2013-02-03 10:38:00,61.9,54.6,29.81,WSW,248,1.6,4.0,77,0.00,,,0.00,WUHU216HW,2013-02-03 18:38:00,
2013-02-03 10:43:00,62.1,54.8,29.80,SW,225,0.4,3.6,77,0.00,,,0.00,WUHU216HW,2013-02-03 18:43:00,
2013-02-03 10:48:00,62.3,54.5,29.80,NW,315,1.8,3.4,76,0.00,,,0.00,WUHU216HW,2013-02-03 18:48:00,
2013-02-03 10:53:00,62.3,54.2,29.80,NNE,23,3.6,3.6,75,0.00,,,0.00,WUHU216HW,2013-02-03 18:53:00,
2013-02-03 10:58:00,62.3,54.2,29.79,West,270,1.6,3.6,75,0.00,,,0.00,WUHU216HW,2013-02-03 18:58:00,
2013-02-03 11:03:00,62.3,53.8,29.79,WSW,248,2.2,3.6,74,0.00,,,0.00,WUHU216HW,2013-02-03 19:03:00,
2013-02-03 11:08:00,62.3,53.8,29.79,WSW,248,1.1,2.7,74,0.00,,,0.00,WUHU216HW,2013-02-03 19:08:00,
2013-02-03 11:13:00,62.6,54.2,29.79,SW,225,3.6,3.6,74,0.00,,,0.00,WUHU216HW,2013-02-03 19:13:00,
2013-02-03 11:18:00,62.6,54.2,29.79,SW,225,2.5,3.6,74,0.00,,,0.00,WUHU216HW,2013-02-03 19:18:00,
2013-02-03 11:23:00,62.3,54.2,29.79,West,270,1.3,4.5,75,0.00,,,0.00,WUHU216HW,2013-02-03 19:23:00,
2013-02-03 11:28:00,61.9,53.9,29.79,WSW,248,1.1,4.5,75,0.00,,,0.00,WUHU216HW,2013-02-03 19:28:00,
2013-02-03 11:33:00,61.6,54.3,29.78,SSW,203,2.5,2.5,77,0.00,,,0.00,WUHU216HW,2013-02-03 19:33:00,
2013-02-03 11:38:00,61.6,54.3,29.78,WSW,248,2.0,4.0,77,0.00,,,0.00,WUHU216HW,2013-02-03 19:38:00,
2013-02-03 11:43:00,62.1,54.8,29.77,ESE,113,0.7,4.0,77,0.00,,,0.00,WUHU216HW,2013-02-03 19:43:00,
2013-02-03 11:48:00,62.3,54.5,29.77,WSW,248,2.2,2.2,76,0.00,,,0.00,WUHU216HW,2013-02-03 19:48:00,
2013-02-03 11:53:00,62.3,54.5,29.77,WSW,248,1.8,4.0,76,0.00,,,0.00,WUHU216HW,2013-02-03 19:53:00,
2013-02-03 11:58:00,62.8,55.1,29.77,WSW,248,4.5,4.5,76,0.00,,,0.00,WUHU216HW,2013-02-03 19:58:00,
2013-02-03 12:03:00,62.6,54.5,29.76,WSW,248,4.3,5.4,75,0.00,,,0.00,WUHU216HW,2013-02-03 20:03:00,
2013-02-03 12:08:00,62.6,54.5,29.76,SW,225,1.6,5.4,75,0.00,,,0.00,WUHU216HW,2013-02-03 20:08:00,
2013-02-03 12:13:00,62.5,54.4,29.76,NNW,338,2.0,4.3,75,0.00,,,0.00,WUHU216HW,2013-02-03 20:13:00,
2013-02-03 12:18:00,62.3,54.5,29.76,WSW,248,2.0,2.7,76,0.00,,,0.00,WUHU216HW,2013-02-03 20:18:00,
2013-02-03 12:23:00,61.9,54.3,29.76,WNW,293,1.3,3.1,76,0.00,,,0.00,WUHU216HW,2013-02-03 20:23:00,
2013-02-03 12:28:00,61.7,54.1,29.75,NNW,338,2.5,3.1,76,0.00,,,0.00,WUHU216HW,2013-02-03 20:28:00,
2013-02-03 12:33:00,61.6,53.9,29.75,SW,225,4.5,4.5,76,0.00,,,0.00,WUHU216HW,2013-02-03 20:33:00,
2013-02-03 12:38:00,61.6,53.9,29.74,WSW,248,2.7,4.5,76,0.00,,,0.00,WUHU216HW,2013-02-03 20:38:00,
2013-02-03 12:43:00,61.4,54.1,29.74,SW,225,3.1,4.5,77,0.00,,,0.00,WUHU216HW,2013-02-03 20:43:00,
2013-02-03 12:48:00,61.4,53.7,29.73,SW,225,4.3,4.3,76,0.00,,,0.00,WUHU216HW,2013-02-03 20:48:00,
2013-02-03 12:53:00,61.6,54.3,29.73,NNW,338,2.2,4.3,77,0.00,,,0.00,WUHU216HW,2013-02-03 20:53:00,
2013-02-03 12:58:00,62.1,54.1,29.74,WNW,293,2.9,4.3,75,0.00,,,0.00,WUHU216HW,2013-02-03 20:58:00,
2013-02-03 13:03:00,62.1,54.1,29.73,WNW,293,1.6,3.1,75,0.00,,,0.00,WUHU216HW,2013-02-03 21:03:00,
2013-02-03 13:08:00,61.7,53.4,29.73,WSW,248,0.4,2.9,74,0.00,,,0.00,WUHU216HW,2013-02-03 21:08:00,
2013-02-03 13:13:00,61.9,53.6,29.73,WNW,293,2.2,2.7,74,0.00,,,0.00,WUHU216HW,2013-02-03 21:13:00,
2013-02-03 13:18:00,61.9,53.6,29.73,WSW,248,3.8,3.8,74,0.00,,,0.00,WUHU216HW,2013-02-03 21:18:00,
2013-02-03 13:23:00,61.7,53.7,29.73,WSW,248,1.1,3.8,75,0.00,,,0.00,WUHU216HW,2013-02-03 21:23:00,
2013-02-03 13:28:00,61.9,53.6,29.72,WSW,248,3.8,3.8,74,0.00,,,0.00,WUHU216HW,2013-02-03 21:28:00,
2013-02-03 13:34:00,61.7,54.1,29.72,WSW,248,1.1,3.8,76,0.00,,,0.00,WUHU216HW,2013-02-03 21:34:00,
2013-02-03 13:39:00,61.9,53.9,29.72,SW,225,4.3,4.3,75,0.00,,,0.00,WUHU216HW,2013-02-03 21:39:00,
2013-02-03 13:44:00,61.6,53.9,29.72,SW,225,2.7,4.7,76,0.00,,,0.00,WUHU216HW,2013-02-03 21:44:00,
2013-02-03 13:49:00,61.4,53.7,29.72,West,270,2.9,4.7,76,0.00,,,0.00,WUHU216HW,2013-02-03 21:49:00,
2013-02-03 13:54:00,61.2,54.0,29.72,West,270,3.4,4.0,77,0.00,,,0.00,WUHU216HW,2013-02-03 21:54:00,
2013-02-03 13:59:00,60.5,53.6,29.72,WSW,248,1.8,4.0,78,0.00,,,0.00,WUHU216HW,2013-02-03 21:59:00,
2013-02-03 14:04:00,60.7,53.8,29.72,WSW,248,1.1,4.0,78,0.00,,,0.00,WUHU216HW,2013-02-03 22:04:00,
2013-02-03 14:09:00,61.0,53.8,29.72,NW,315,0.7,1.8,77,0.00,,,0.00,WUHU216HW,2013-02-03 22:09:00,
2013-02-03 14:14:00,61.2,54.0,29.72,WSW,248,3.4,3.4,77,0.00,,,0.00,WUHU216HW,2013-02-03 22:14:00,
2013-02-03 14:19:00,61.6,53.9,29.72,NW,315,2.5,3.4,76,0.00,,,0.00,WUHU216HW,2013-02-03 22:19:00,
2013-02-03 14:24:00,61.9,54.3,29.71,WNW,293,2.0,3.4,76,0.00,,,0.00,WUHU216HW,2013-02-03 22:24:00,
2013-02-03 14:29:00,61.9,53.6,29.71,West,270,1.3,2.5,74,0.00,,,0.00,WUHU216HW,2013-02-03 22:29:00,
2013-02-03 14:34:00,61.9,53.6,29.71,WNW,293,2.2,3.1,74,0.00,,,0.00,WUHU216HW,2013-02-03 22:34:00,
2013-02-03 14:39:00,61.6,53.9,29.71,North,0,2.5,3.1,76,0.00,,,0.00,WUHU216HW,2013-02-03 22:39:00,
2013-02-03 14:44:00,61.2,54.0,29.70,WSW,248,2.0,3.1,77,0.00,,,0.00,WUHU216HW,2013-02-03 22:44:00,
2013-02-03 14:49:00,61.4,54.5,29.71,WNW,293,2.0,3.1,78,0.00,,,0.00,WUHU216HW,2013-02-03 22:49:00,
2013-02-03 14:54:00,61.2,54.0,29.71,West,270,2.5,4.0,77,0.00,,,0.00,WUHU216HW,2013-02-03 22:54:00,
2013-02-03 14:59:00,61.0,54.6,29.71,WSW,248,2.7,4.0,79,0.00,,,0.00,WUHU216HW,2013-02-03 22:59:00,
2013-02-03 15:04:00,61.2,54.4,29.70,ESE,113,1.6,4.3,78,0.00,,,0.00,WUHU216HW,2013-02-03 23:04:00,
2013-02-03 15:09:00,61.2,54.4,29.70,West,270,1.8,4.3,78,0.00,,,0.00,WUHU216HW,2013-02-03 23:09:00,
2013-02-03 15:14:00,60.3,53.8,29.70,NW,315,2.7,4.5,79,0.00,,,0.00,WUHU216HW,2013-02-03 23:14:00,
2013-02-03 15:19:00,60.1,54.0,29.71,SW,225,0.9,4.5,80,0.00,,,0.00,WUHU216HW,2013-02-03 23:19:00,
2013-02-03 15:24:00,60.3,53.8,29.70,NW,315,2.7,4.3,79,0.00,,,0.00,WUHU216HW,2013-02-03 23:24:00,
2013-02-03 15:29:00,60.5,54.0,29.71,WSW,248,4.0,4.0,79,0.00,,,0.00,WUHU216HW,2013-02-03 23:29:00,
2013-02-03 15:34:00,60.5,54.0,29.70,West,270,3.4,4.0,79,0.00,,,0.00,WUHU216HW,2013-02-03 23:34:00,
2013-02-03 15:39:00,60.1,54.0,29.70,West,270,2.9,4.3,80,0.00,,,0.00,WUHU216HW,2013-02-03 23:39:00,
2013-02-03 15:44:00,59.8,53.6,29.70,West,270,3.4,4.3,80,0.00,,,0.00,WUHU216HW,2013-02-03 23:44:00,
2013-02-03 15:49:00,59.8,54.0,29.70,WSW,248,2.2,4.3,81,0.00,,,0.00,WUHU216HW,2013-02-03 23:49:00,
2013-02-03 15:54:00,59.9,53.8,29.70,West,270,2.5,4.0,80,0.00,,,0.00,WUHU216HW,2013-02-03 23:54:00,
2013-02-03 15:59:00,60.1,54.0,29.70,West,270,4.7,4.7,80,0.00,,,0.00,WUHU216HW,2013-02-03 23:59:00,
2013-02-03 16:04:00,59.9,53.8,29.70,NW,315,2.5,4.7,80,0.00,,,0.00,WUHU216HW,2013-02-04 00:04:00,
2013-02-03 16:09:00,59.9,53.8,29.70,SW,225,3.6,4.7,80,0.00,,,0.00,WUHU216HW,2013-02-04 00:09:00,
2013-02-03 16:14:00,59.9,53.8,29.70,West,270,2.5,3.6,80,0.00,,,0.00,WUHU216HW,2013-02-04 00:14:00,
2013-02-03 16:19:00,59.9,53.8,29.70,NW,315,3.4,3.6,80,0.00,,,0.00,WUHU216HW,2013-02-04 00:19:00,
2013-02-03 16:24:00,59.8,54.0,29.69,ESE,113,1.1,3.4,81,0.00,,,0.00,WUHU216HW,2013-02-04 00:24:00,
2013-02-03 16:29:00,59.6,53.8,29.70,East,90,1.1,3.4,81,0.00,,,0.00,WUHU216HW,2013-02-04 00:29:00,
2013-02-03 16:34:00,59.4,53.7,29.69,SSW,203,0.7,2.5,81,0.00,,,0.00,WUHU216HW,2013-02-04 00:34:00,
2013-02-03 16:39:00,59.0,53.3,29.69,West,270,1.1,2.5,81,0.00,,,0.00,WUHU216HW,2013-02-04 00:39:00,
2013-02-03 16:44:00,58.9,53.1,29.69,SSW,203,1.3,2.5,81,0.00,,,0.00,WUHU216HW,2013-02-04 00:44:00,
2013-02-03 16:49:00,58.7,53.2,29.69,West,270,3.4,3.4,82,0.00,,,0.00,WUHU216HW,2013-02-04 00:49:00,
2013-02-03 16:54:00,58.3,52.8,29.69,WSW,248,1.8,3.4,82,0.00,,,0.00,WUHU216HW,2013-02-04 00:54:00,
2013-02-03 16:59:00,58.1,52.7,29.69,NNE,23,0.7,3.4,82,0.00,,,0.00,WUHU216HW,2013-02-04 00:59:00,
2013-02-03 17:04:00,58.0,52.8,29.69,NNW,338,0.0,3.1,83,0.00,,,0.00,WUHU216HW,2013-02-04 01:04:00,
2013-02-03 17:09:00,57.6,52.5,29.69,West,270,1.1,2.9,83,0.00,,,0.00,WUHU216HW,2013-02-04 01:09:00,
2013-02-03 17:14:00,57.4,52.6,29.69,WSW,248,0.9,2.9,84,0.00,,,0.00,WUHU216HW,2013-02-04 01:14:00,
2013-02-03 17:19:00,57.2,52.4,29.69,WSW,248,1.8,2.2,84,0.00,,,0.00,WUHU216HW,2013-02-04 01:19:00,
2013-02-03 17:24:00,57.1,52.2,29.69,NNW,338,2.2,2.5,84,0.00,,,0.00,WUHU216HW,2013-02-04 01:24:00,
2013-02-03 17:29:00,56.9,52.0,29.69,West,270,1.8,2.5,84,0.00,,,0.00,WUHU216HW,2013-02-04 01:29:00,
2013-02-03 17:34:00,56.7,51.8,29.69,WSW,248,0.7,2.2,84,0.00,,,0.00,WUHU216HW,2013-02-04 01:34:00,
2013-02-03 17:39:00,56.5,51.7,29.69,West,270,0.7,3.1,84,0.00,,,0.00,WUHU216HW,2013-02-04 01:39:00,
2013-02-03 17:44:00,56.5,51.7,29.69,West,270,0.2,3.1,84,0.00,,,0.00,WUHU216HW,2013-02-04 01:44:00,
2013-02-03 17:49:00,56.5,52.0,29.70,WSW,248,0.2,2.0,85,0.00,,,0.00,WUHU216HW,2013-02-04 01:49:00,
2013-02-03 17:54:00,56.3,52.2,29.70,WSW,248,1.1,1.8,86,0.00,,,0.00,WUHU216HW,2013-02-04 01:54:00,
2013-02-03 17:59:00,56.2,52.0,29.70,NW,315,1.1,2.0,86,0.00,,,0.00,WUHU216HW,2013-02-04 01:59:00,
2013-02-03 18:04:00,56.2,52.0,29.70,North,0,0.2,2.0,86,0.00,,,0.00,WUHU216HW,2013-02-04 02:04:00,
2013-02-03 18:09:00,56.0,51.5,29.70,NW,315,0.0,1.8,85,0.00,,,0.00,WUHU216HW,2013-02-04 02:09:00,
2013-02-03 18:14:00,55.8,51.3,29.70,NW,315,0.7,1.8,85,0.00,,,0.00,WUHU216HW,2013-02-04 02:14:00,
2013-02-03 18:19:00,55.8,51.3,29.70,WNW,293,0.0,0.7,85,0.00,,,0.00,WUHU216HW,2013-02-04 02:19:00,
2013-02-03 18:24:00,55.8,51.3,29.70,NW,315,0.0,0.4,85,0.00,,,0.00,WUHU216HW,2013-02-04 02:24:00,
2013-02-03 18:29:00,55.6,51.1,29.70,West,270,0.0,0.4,85,0.00,,,0.00,WUHU216HW,2013-02-04 02:29:00,
2013-02-03 18:34:00,55.4,50.9,29.70,West,270,0.0,0.4,85,0.00,,,0.00,WUHU216HW,2013-02-04 02:34:00,
2013-02-03 18:39:00,55.3,50.8,29.71,West,270,0.0,0.0,85,0.00,,,0.00,WUHU216HW,2013-02-04 02:39:00,
2013-02-03 18:44:00,55.1,50.6,29.71,ESE,113,1.1,1.1,85,0.00,,,0.00,WUHU216HW,2013-02-04 02:44:00,
2013-02-03 18:49:00,54.9,51.0,29.71,ENE,68,1.1,1.1,87,0.00,,,0.00,WUHU216HW,2013-02-04 02:49:00,
2013-02-03 18:54:00,54.7,51.2,29.71,NE,45,1.3,1.8,88,0.00,,,0.00,WUHU216HW,2013-02-04 02:54:00,
2013-02-03 18:59:00,54.4,50.6,29.71,NE,45,1.1,1.8,87,0.00,,,0.00,WUHU216HW,2013-02-04 02:59:00,
2013-02-03 19:04:00,54.2,50.4,29.71,NE,45,1.1,1.3,87,0.00,,,0.00,WUHU216HW,2013-02-04 03:04:00,
2013-02-03 19:09:00,54.0,49.9,29.71,North,0,1.8,1.8,86,0.00,,,0.00,WUHU216HW,2013-02-04 03:09:00,
2013-02-03 19:14:00,53.8,49.7,29.71,NE,45,0.9,1.8,86,0.00,,,0.00,WUHU216HW,2013-02-04 03:14:00,
2013-02-03 19:19:00,53.6,50.1,29.71,ENE,68,0.7,1.8,88,0.00,,,0.00,WUHU216HW,2013-02-04 03:19:00,
2013-02-03 19:24:00,53.6,50.1,29.71,ENE,68,1.1,1.8,88,0.00,,,0.00,WUHU216HW,2013-02-04 03:24:00,
2013-02-03 19:29:00,53.5,50.0,29.71,East,90,1.6,1.6,88,0.00,,,0.00,WUHU216HW,2013-02-04 03:29:00,
2013-02-03 19:34:00,53.3,49.8,29.71,ENE,68,1.1,1.6,88,0.00,,,0.00,WUHU216HW,2013-02-04 03:34:00,
2013-02-03 19:39:00,53.1,49.6,29.71,ENE,68,1.6,1.6,88,0.00,,,0.00,WUHU216HW,2013-02-04 03:39:00,
2013-02-03 19:44:00,53.1,49.6,29.72,East,90,0.9,1.8,88,0.00,,,0.00,WUHU216HW,2013-02-04 03:44:00,
2013-02-03 19:49:00,52.9,49.2,29.72,ESE,113,0.7,1.8,87,0.00,,,0.00,WUHU216HW,2013-02-04 03:49:00,
2013-02-03 19:54:00,52.9,49.4,29.71,ENE,68,1.3,1.3,88,0.00,,,0.00,WUHU216HW,2013-02-04 03:54:00,
2013-02-03 19:59:00,52.7,49.6,29.72,ESE,113,0.7,2.9,89,0.00,,,0.00,WUHU216HW,2013-02-04 03:59:00,
2013-02-03 20:04:00,52.7,49.6,29.72,ENE,68,1.3,2.9,89,0.00,,,0.00,WUHU216HW,2013-02-04 04:04:00,
2013-02-03 20:09:00,52.7,49.6,29.72,ENE,68,0.7,2.5,89,0.00,,,0.00,WUHU216HW,2013-02-04 04:09:00,
2013-02-03 20:14:00,52.6,49.4,29.72,East,90,1.1,2.5,89,0.00,,,0.00,WUHU216HW,2013-02-04 04:14:00,
2013-02-03 20:19:00,52.6,49.4,29.72,ENE,68,0.9,1.8,89,0.00,,,0.00,WUHU216HW,2013-02-04 04:19:00,
2013-02-03 20:24:00,52.6,49.4,29.72,NE,45,1.3,2.5,89,0.00,,,0.00,WUHU216HW,2013-02-04 04:24:00,
2013-02-03 20:29:00,52.4,49.2,29.72,SE,135,1.6,2.9,89,0.00,,,0.00,WUHU216HW,2013-02-04 04:29:00,
2013-02-03 20:34:00,52.2,49.1,29.72,East,90,2.5,2.9,89,0.00,,,0.00,WUHU216HW,2013-02-04 04:34:00,
2013-02-03 20:39:00,52.2,49.1,29.72,SE,135,0.7,2.5,89,0.00,,,0.00,WUHU216HW,2013-02-04 04:39:00,
2013-02-03 20:44:00,52.2,49.1,29.72,SSE,158,1.8,2.5,89,0.00,,,0.00,WUHU216HW,2013-02-04 04:44:00,
2013-02-03 20:49:00,52.2,49.1,29.73,ESE,113,0.4,1.8,89,0.00,,,0.00,WUHU216HW,2013-02-04 04:49:00,
2013-02-03 20:54:00,52.2,49.1,29.72,ESE,113,1.1,1.8,89,0.00,,,0.00,WUHU216HW,2013-02-04 04:54:00,
2013-02-03 20:59:00,52.2,49.1,29.72,ESE,113,1.1,2.0,89,0.00,,,0.00,WUHU216HW,2013-02-04 04:59:00,
2013-02-03 21:00:00,52.2,49.1,29.72,ESE,113,0.7,2.0,89,0.00,,,0.00,WUHU216HW,2013-02-04 05:00:00,
2013-02-03 21:03:00,52.2,49.1,29.72,ESE,113,0.0,2.0,89,0.00,,,0.00,WUHU216HW,2013-02-04 05:03:00,
2013-02-03 21:08:00,52.2,49.1,29.73,ENE,68,1.1,1.8,89,0.00,,,0.00,WUHU216HW,2013-02-04 05:08:00,
2013-02-03 21:13:00,52.2,49.1,29.73,East,90,0.0,1.1,89,0.00,,,0.00,WUHU216HW,2013-02-04 05:13:00,
2013-02-03 21:18:00,52.0,49.1,29.73,ENE,68,0.2,1.1,90,0.00,,,0.00,WUHU216HW,2013-02-04 05:18:00,
2013-02-03 21:23:00,51.8,48.7,29.73,ESE,113,0.0,1.1,89,0.00,,,0.00,WUHU216HW,2013-02-04 05:23:00,
2013-02-03 21:28:00,51.8,49.0,29.73,NNE,23,0.4,1.8,90,0.00,,,0.00,WUHU216HW,2013-02-04 05:28:00,
2013-02-03 21:33:00,51.5,48.3,29.73,NE,45,1.1,2.2,89,0.00,,,0.00,WUHU216HW,2013-02-04 05:33:00,
2013-02-03 21:38:00,51.1,48.0,29.73,SW,225,0.9,2.2,89,0.00,,,0.00,WUHU216HW,2013-02-04 05:38:00,
2013-02-03 21:43:00,50.9,47.8,29.73,NNE,23,0.4,2.0,89,0.00,,,0.00,WUHU216HW,2013-02-04 05:43:00,
2013-02-03 21:48:00,50.8,47.6,29.73,NNE,23,1.3,1.3,89,0.00,,,0.00,WUHU216HW,2013-02-04 05:48:00,
2013-02-03 21:53:00,50.8,47.3,29.73,NNW,338,0.9,1.6,88,0.00,,,0.00,WUHU216HW,2013-02-04 05:53:00,
2013-02-03 21:58:00,50.6,47.1,29.73,NNE,23,1.3,1.6,88,0.00,,,0.00,WUHU216HW,2013-02-04 05:58:00,
2013-02-03 22:03:00,50.4,46.9,29.73,NNE,23,1.1,1.8,88,0.00,,,0.00,WUHU216HW,2013-02-04 06:03:00,
2013-02-03 22:08:00,50.2,46.7,29.73,SW,225,0.0,1.8,88,0.00,,,0.00,WUHU216HW,2013-02-04 06:08:00,
2013-02-03 22:13:00,50.0,46.5,29.73,NE,45,0.4,1.8,88,0.00,,,0.00,WUHU216HW,2013-02-04 06:13:00,
2013-02-03 22:18:00,49.9,46.4,29.73,North,0,0.4,1.6,88,0.00,,,0.00,WUHU216HW,2013-02-04 06:18:00,
2013-02-03 22:23:00,49.9,46.4,29.73,North,0,0.0,1.6,88,0.00,,,0.00,WUHU216HW,2013-02-04 06:23:00,
2013-02-03 22:28:00,49.7,46.3,29.73,ESE,113,0.4,0.9,88,0.00,,,0.00,WUHU216HW,2013-02-04 06:28:00,
2013-02-03 22:33:00,49.3,46.2,29.73,ENE,68,0.4,0.9,89,0.00,,,0.00,WUHU216HW,2013-02-04 06:33:00,
2013-02-03 22:38:00,49.3,45.9,29.74,North,0,0.0,1.3,88,0.00,,,0.00,WUHU216HW,2013-02-04 06:38:00,
2013-02-03 22:43:00,49.3,45.9,29.73,North,0,0.4,1.3,88,0.00,,,0.00,WUHU216HW,2013-02-04 06:43:00,
2013-02-03 22:48:00,49.3,45.9,29.73,North,0,0.7,1.1,88,0.00,,,0.00,WUHU216HW,2013-02-04 06:48:00,
2013-02-03 22:53:00,49.1,45.7,29.74,North,0,1.8,1.8,88,0.00,,,0.00,WUHU216HW,2013-02-04 06:53:00,
2013-02-03 22:58:00,49.1,45.7,29.74,North,0,0.9,2.2,88,0.00,,,0.00,WUHU216HW,2013-02-04 06:58:00,
2013-02-03 23:03:00,49.0,45.5,29.74,NNE,23,0.0,2.2,88,0.00,,,0.00,WUHU216HW,2013-02-04 07:03:00,
2013-02-03 23:08:00,49.0,45.5,29.74,East,90,0.0,1.3,88,0.00,,,0.00,WUHU216HW,2013-02-04 07:08:00,
2013-02-03 23:13:00,48.8,45.4,29.74,ESE,113,1.1,1.1,88,0.00,,,0.00,WUHU216HW,2013-02-04 07:13:00,
2013-02-03 23:18:00,48.8,45.7,29.73,NNE,23,1.8,2.5,89,0.00,,,0.00,WUHU216HW,2013-02-04 07:18:00,
2013-02-03 23:23:00,48.8,45.7,29.74,WNW,293,0.0,2.5,89,0.00,,,0.00,WUHU216HW,2013-02-04 07:23:00,
2013-02-03 23:28:00,48.6,45.5,29.73,NE,45,0.9,2.0,89,0.00,,,0.00,WUHU216HW,2013-02-04 07:28:00,
2013-02-03 23:33:00,48.6,45.9,29.73,ENE,68,0.9,1.3,90,0.00,,,0.00,WUHU216HW,2013-02-04 07:33:00,
2013-02-03 23:38:00,48.6,45.9,29.73,ENE,68,0.4,1.3,90,0.00,,,0.00,WUHU216HW,2013-02-04 07:38:00,
2013-02-03 23:43:00,48.6,45.9,29.73,NNE,23,0.0,1.1,90,0.00,,,0.00,WUHU216HW,2013-02-04 07:43:00,
2013-02-03 23:48:00,48.6,45.5,29.73,North,0,0.0,0.4,89,0.00,,,0.00,WUHU216HW,2013-02-04 07:48:00,
2013-02-03 23:53:00,48.4,45.4,29.73,North,0,0.0,0.7,89,0.00,,,0.00,WUHU216HW,2013-02-04 07:53:00,
2013-02-03 23:58:00,48.4,45.4,29.73,NNW,338,0.2,0.7,89,0.00,,,0.00,WUHU216HW,2013-02-04 07:58:00,